Time;durP1;ratioP1;P1;durP2;ratioP2;P2;SDS_P1;SDS_P2;PMS_P1;PMS_P2;Temp;Humidity;BMP_temperature;BMP_pressure;BME280_temperature;BME280_humidity;BME280_pressure;Samples;Min_cycle;Max_cycle;Signal;HPM_P1;HPM_P2
2023/01/23 00:03:08;;;;;;;8.80;4.60;;;2.30;99.90;;;;;;10196517;28;20043;-71
2023/01/23 00:08:13;;;;;;;9.45;3.65;;;2.30;99.90;;;;;;10199692;28;20040;-73
2023/01/23 00:13:04;;;;;;;6.32;3.63;;;2.30;99.90;;;;;;10187442;28;20032;-72
2023/01/23 00:17:55;;;;;;;8.00;3.63;;;2.30;99.90;;;;;;10192785;28;20021;-68
2023/01/23 00:22:45;;;;;;;7.78;3.65;;;2.20;99.90;;;;;;10189985;28;20485;-72
2023/01/23 00:27:36;;;;;;;7.88;3.70;;;2.20;99.90;;;;;;10181220;28;20036;-70
2023/01/23 00:32:27;;;;;;;7.13;3.70;;;2.10;99.90;;;;;;10186043;28;20497;-69
2023/01/23 00:37:19;;;;;;;7.40;3.45;;;2.10;99.90;;;;;;10212759;28;20016;-68
2023/01/23 00:42:10;;;;;;;8.00;3.95;;;2.10;99.90;;;;;;10189953;28;20393;-68
2023/01/23 00:47:01;;;;;;;7.32;4.00;;;2.10;99.90;;;;;;10191028;28;20544;-72
2023/01/23 00:51:53;;;;;;;7.88;4.57;;;2.10;99.90;;;;;;10183821;28;20026;-69
2023/01/23 00:56:43;;;;;;;8.10;3.88;;;2.10;99.90;;;;;;10188301;28;20110;-70
2023/01/23 01:01:34;;;;;;;6.90;4.30;;;2.10;99.90;;;;;;10213722;28;20063;-67
2023/01/23 01:06:25;;;;;;;7.65;4.28;;;2.10;99.90;;;;;;10208522;28;20438;-68
2023/01/23 01:11:16;;;;;;;8.40;4.57;;;2.10;99.90;;;;;;10190246;28;20032;-68
2023/01/23 01:16:07;;;;;;;5.85;3.88;;;2.10;99.90;;;;;;10170860;28;20028;-73
2023/01/23 01:20:58;;;;;;;8.23;4.38;;;2.10;99.90;;;;;;10194536;28;20027;-69
2023/01/23 01:25:49;;;;;;;9.00;4.07;;;2.10;99.90;;;;;;10197112;28;20035;-67
2023/01/23 01:30:40;;;;;;;9.02;4.55;;;2.10;99.90;;;;;;10179353;28;20405;-69
2023/01/23 01:35:31;;;;;;;9.18;4.65;;;2.10;99.90;;;;;;10221777;28;20039;-71
2023/01/23 01:40:33;;;;;;;7.60;3.42;;;2.10;99.90;;;;;;10204069;28;20013;-71
2023/01/23 01:46:01;;;;;;;8.82;3.90;;;2.10;99.90;;;;;;10190764;28;20301;-72
2023/01/23 01:50:52;;;;;;;9.25;4.20;;;2.10;99.90;;;;;;10184086;28;20034;-70
2023/01/23 01:55:43;;;;;;;10.35;4.10;;;2.10;99.90;;;;;;10181470;28;20066;-68
2023/01/23 02:00:34;;;;;;;7.93;3.85;;;2.10;99.90;;;;;;10207148;28;20057;-70
2023/01/23 02:05:26;;;;;;;6.50;3.65;;;2.10;99.90;;;;;;10199684;28;20023;-75
2023/01/23 02:10:17;;;;;;;8.07;4.32;;;2.10;99.90;;;;;;10213532;28;20034;-72
2023/01/23 02:15:08;;;;;;;8.18;3.78;;;2.10;99.90;;;;;;10207132;28;20477;-74
2023/01/23 02:20:18;;;;;;;10.75;4.28;;;2.10;99.90;;;;;;10193904;28;20028;-71
2023/01/23 02:25:11;;;;;;;10.52;4.72;;;2.20;99.90;;;;;;10185596;28;20554;-71
2023/01/23 02:30:02;;;;;;;9.10;4.88;;;2.20;99.90;;;;;;10186633;28;20028;-68
2023/01/23 02:34:56;;;;;;;7.00;3.47;;;2.20;99.90;;;;;;10197552;28;20035;-69
2023/01/23 02:39:47;;;;;;;11.80;5.25;;;2.20;99.90;;;;;;10197465;28;20028;-68
2023/01/23 02:44:37;;;;;;;9.43;4.20;;;2.30;99.90;;;;;;10167460;28;20521;-69
2023/01/23 02:49:29;;;;;;;5.78;3.25;;;2.20;99.90;;;;;;10191605;28;20508;-69
2023/01/23 02:54:20;;;;;;;11.73;4.28;;;2.20;99.90;;;;;;10183176;28;20118;-68
2023/01/23 03:04:20;;;;;;;7.10;3.58;;;2.30;99.90;;;;;;10203187;28;20046;-68
2023/01/23 03:09:14;;;;;;;7.30;3.88;;;2.30;99.90;;;;;;10199723;28;20028;-68
2023/01/23 03:14:08;;;;;;;7.43;3.67;;;2.30;99.90;;;;;;10209189;28;20030;-70
2023/01/23 03:19:04;;;;;;;9.35;3.70;;;2.20;99.90;;;;;;10205863;28;20019;-69
2023/01/23 03:23:55;;;;;;;9.45;4.45;;;2.10;99.90;;;;;;10188894;28;20047;-67
2023/01/23 03:33:55;;;;;;;7.03;3.85;;;2.10;99.90;;;;;;10197477;28;20077;-70
2023/01/23 03:43:55;;;;;;;5.40;2.88;;;2.00;99.90;;;;;;10198391;28;20062;-70
2023/01/23 03:48:46;;;;;;;8.38;3.88;;;2.00;99.90;;;;;;10188562;28;20063;-66
2023/01/23 03:53:36;;;;;;;7.15;4.22;;;2.00;99.90;;;;;;10184708;28;20020;-68
2023/01/23 03:58:29;;;;;;;6.65;3.55;;;2.00;99.90;;;;;;10195956;28;20032;-66
2023/01/23 04:03:19;;;;;;;8.55;3.80;;;2.10;99.90;;;;;;10195580;28;20078;-67
2023/01/23 04:08:10;;;;;;;6.93;3.03;;;2.00;99.90;;;;;;10177464;28;20095;-69
2023/01/23 04:13:02;;;;;;;6.78;2.90;;;2.10;99.90;;;;;;10201857;28;20027;-71
2023/01/23 04:17:52;;;;;;;5.70;3.22;;;2.10;99.90;;;;;;10186724;28;20051;-64
2023/01/23 04:22:43;;;;;;;9.57;3.72;;;2.10;99.90;;;;;;10187617;28;20512;-68
2023/01/23 04:27:33;;;;;;;8.85;4.15;;;2.10;99.90;;;;;;10183393;28;20032;-70
2023/01/23 04:32:24;;;;;;;5.70;3.17;;;2.00;99.90;;;;;;10179811;28;20046;-67
2023/01/23 04:37:15;;;;;;;6.57;3.75;;;2.10;99.90;;;;;;10203639;28;20043;-71
2023/01/23 04:42:06;;;;;;;6.75;3.22;;;2.00;99.90;;;;;;10190286;28;20052;-67
2023/01/23 04:46:57;;;;;;;7.95;3.78;;;2.10;99.90;;;;;;10191021;28;20522;-70
2023/01/23 04:51:48;;;;;;;8.70;4.57;;;2.10;99.90;;;;;;10187008;28;20410;-71
2023/01/23 04:56:39;;;;;;;5.40;3.50;;;2.10;99.90;;;;;;10187126;28;20515;-70
2023/01/23 05:01:30;;;;;;;6.38;3.25;;;2.10;99.90;;;;;;10190714;28;20055;-70
2023/01/23 05:06:20;;;;;;;7.75;3.63;;;2.20;99.90;;;;;;10208334;28;20107;-69
2023/01/23 05:11:11;;;;;;;6.88;3.97;;;2.20;99.90;;;;;;10204308;28;20397;-69
2023/01/23 05:16:02;;;;;;;6.80;3.08;;;2.20;99.90;;;;;;10197929;28;20059;-71
2023/01/23 05:20:53;;;;;;;7.93;3.28;;;2.20;99.90;;;;;;10191211;28;20021;-68
2023/01/23 05:25:44;;;;;;;8.05;4.15;;;2.10;99.90;;;;;;10184737;28;20553;-66
2023/01/23 05:30:34;;;;;;;9.68;3.90;;;2.20;99.90;;;;;;10176927;28;20020;-67
2023/01/23 05:35:25;;;;;;;8.13;4.25;;;2.10;99.90;;;;;;10211717;28;20047;-66
2023/01/23 05:40:16;;;;;;;12.23;4.43;;;2.10;99.90;;;;;;10187605;28;20024;-67
2023/01/23 05:45:07;;;;;;;8.32;3.85;;;2.10;99.90;;;;;;10186890;28;20059;-67
2023/01/23 05:49:58;;;;;;;9.40;4.38;;;2.20;99.90;;;;;;10185301;28;20385;-68
2023/01/23 05:54:49;;;;;;;9.65;4.18;;;2.10;99.90;;;;;;10178467;28;20024;-67
2023/01/23 05:59:39;;;;;;;7.72;3.35;;;2.10;99.90;;;;;;10194083;28;20110;-67
2023/01/23 06:04:30;;;;;;;6.53;3.28;;;2.10;99.90;;;;;;10175649;28;20757;-70
2023/01/23 06:09:21;;;;;;;8.93;3.95;;;2.10;99.90;;;;;;10165364;28;20399;-68
2023/01/23 06:14:11;;;;;;;9.15;4.00;;;2.20;99.90;;;;;;10198296;28;20027;-65
2023/01/23 06:19:02;;;;;;;8.65;4.18;;;2.20;99.90;;;;;;10184542;28;20023;-70
2023/01/23 06:23:53;;;;;;;9.88;4.45;;;2.20;99.90;;;;;;10185770;28;20053;-72
2023/01/23 06:28:43;;;;;;;8.80;3.92;;;2.20;99.90;;;;;;10183148;28;20520;-70
2023/01/23 06:33:35;;;;;;;9.30;3.97;;;2.10;99.90;;;;;;10176533;28;20059;-69
2023/01/23 06:38:27;;;;;;;8.45;4.30;;;2.20;99.90;;;;;;10209303;28;20026;-70
2023/01/23 06:43:17;;;;;;;9.55;4.07;;;2.20;99.90;;;;;;10177148;28;20557;-69
2023/01/23 06:48:08;;;;;;;7.43;3.50;;;2.10;99.90;;;;;;10167829;28;20051;-69
2023/01/23 06:52:59;;;;;;;10.63;4.38;;;2.20;99.90;;;;;;10175490;28;20032;-68
2023/01/23 06:57:50;;;;;;;7.25;3.63;;;2.20;99.90;;;;;;10183663;28;20266;-69
2023/01/23 07:02:40;;;;;;;9.18;4.25;;;2.30;99.90;;;;;;10200105;28;20809;-68
2023/01/23 07:07:31;;;;;;;8.38;4.60;;;2.30;99.90;;;;;;10194418;28;20036;-68
2023/01/23 07:12:21;;;;;;;10.02;4.72;;;2.20;99.90;;;;;;10210726;28;20047;-66
2023/01/23 07:17:12;;;;;;;7.25;3.58;;;2.20;99.90;;;;;;10200128;28;20019;-73
2023/01/23 07:22:03;;;;;;;6.10;4.38;;;2.30;99.90;;;;;;10188826;28;20107;-69
2023/01/23 07:26:53;;;;;;;9.55;4.45;;;2.30;99.90;;;;;;10187196;28;20217;-67
2023/01/23 07:31:44;;;;;;;10.43;4.57;;;2.30;99.90;;;;;;10182338;28;20035;-69
2023/01/23 07:36:35;;;;;;;9.90;4.13;;;2.40;99.90;;;;;;10195866;28;20115;-67
2023/01/23 07:41:25;;;;;;;8.13;4.63;;;2.30;99.90;;;;;;10193955;28;20019;-66
2023/01/23 07:46:16;;;;;;;12.15;4.20;;;2.40;99.90;;;;;;10192352;28;20390;-68
2023/01/23 07:51:07;;;;;;;9.93;4.20;;;2.50;99.90;;;;;;10179175;28;20463;-67
2023/01/23 07:55:57;;;;;;;7.07;3.95;;;2.40;99.90;;;;;;10191731;28;20258;-68
2023/01/23 08:00:48;;;;;;;11.50;4.32;;;2.40;99.90;;;;;;10203672;28;20027;-68
2023/01/23 08:05:39;;;;;;;8.98;4.80;;;2.40;99.90;;;;;;10207876;28;20044;-71
2023/01/23 08:10:29;;;;;;;7.65;4.25;;;2.50;99.90;;;;;;10182896;28;20032;-68
2023/01/23 08:15:20;;;;;;;10.20;4.70;;;2.50;99.90;;;;;;10189482;28;20107;-66
2023/01/23 08:20:11;;;;;;;8.07;3.08;;;2.60;99.90;;;;;;10187551;28;20073;-65
2023/01/23 08:25:02;;;;;;;8.27;4.15;;;2.50;99.90;;;;;;10186735;28;20258;-66
2023/01/23 08:29:52;;;;;;;8.20;4.00;;;2.50;99.90;;;;;;10186468;28;20038;-67
2023/01/23 08:34:43;;;;;;;9.15;3.97;;;2.50;99.90;;;;;;10213019;28;20047;-67
2023/01/23 08:39:34;;;;;;;7.57;3.97;;;2.50;99.90;;;;;;10198896;28;20545;-66
2023/01/23 08:44:25;;;;;;;8.57;3.97;;;2.60;99.90;;;;;;10174429;28;20045;-66
2023/01/23 08:49:18;;;;;;;8.25;3.20;;;2.50;99.90;;;;;;10185513;28;20406;-66
2023/01/23 08:54:09;;;;;;;8.10;3.90;;;2.60;99.90;;;;;;10182178;28;20126;-67
2023/01/23 08:59:00;;;;;;;6.53;3.17;;;2.60;99.90;;;;;;10197008;28;20059;-68
2023/01/23 09:03:50;;;;;;;9.50;4.88;;;2.70;99.90;;;;;;10197475;28;20108;-66
2023/01/23 09:08:41;;;;;;;11.23;4.50;;;2.70;99.90;;;;;;10203650;28;20042;-73
2023/01/23 09:13:33;;;;;;;8.70;3.92;;;2.70;99.90;;;;;;10195111;28;20020;-71
2023/01/23 09:18:26;;;;;;;8.07;3.55;;;2.80;99.90;;;;;;10185706;28;20394;-72
2023/01/23 09:23:17;;;;;;;12.20;4.68;;;2.90;99.90;;;;;;10185802;28;20104;-71
2023/01/23 09:28:08;;;;;;;8.75;4.65;;;2.90;99.90;;;;;;10173806;28;20036;-71
2023/01/23 09:33:00;;;;;;;6.30;3.55;;;2.90;99.90;;;;;;10195905;28;20228;-70
2023/01/23 09:38:00;;;;;;;10.93;4.57;;;3.00;99.90;;;;;;10207346;28;20627;-69
2023/01/23 09:42:52;;;;;;;7.88;3.97;;;3.10;99.90;;;;;;10178859;28;20385;-72
2023/01/23 09:48:03;;;;;;;11.65;4.28;;;3.10;99.90;;;;;;10188950;28;20152;-76
2023/01/23 09:53:17;;;;;;;8.15;4.57;;;3.20;99.90;;;;;;10183729;28;20024;-72
2023/01/23 09:58:20;;;;;;;11.88;5.10;;;3.30;99.90;;;;;;10198939;28;20074;-77
2023/01/23 10:03:14;;;;;;;8.27;4.65;;;3.40;99.90;;;;;;10186021;28;20032;-70
2023/01/23 10:08:35;;;;;;;7.10;4.55;;;3.50;99.90;;;;;;10214889;28;20088;-76
2023/01/23 10:13:40;;;;;;;10.90;5.10;;;3.50;99.90;;;;;;10200639;28;20573;-72
2023/01/23 10:18:58;;;;;;;10.70;4.43;;;3.40;99.90;;;;;;10193104;28;20115;-68
2023/01/23 10:23:54;;;;;;;10.85;5.10;;;3.30;99.90;;;;;;10177623;28;20023;-71
2023/01/23 10:28:46;;;;;;;10.63;4.35;;;3.30;99.90;;;;;;10182036;28;20055;-70
2023/01/23 10:34:10;;;;;;;9.13;4.68;;;3.40;99.90;;;;;;10195310;28;20023;-68
2023/01/23 10:39:11;;;;;;;12.65;5.68;;;3.30;99.90;;;;;;10186346;28;20095;-69
2023/01/23 10:44:16;;;;;;;11.20;4.65;;;3.40;99.90;;;;;;10186756;28;20398;-67
2023/01/23 10:49:06;;;;;;;7.32;3.67;;;3.50;99.90;;;;;;10187425;28;20082;-68
2023/01/23 10:54:19;;;;;;;10.15;4.80;;;3.60;99.90;;;;;;10173613;28;20024;-69
2023/01/23 10:59:27;;;;;;;11.82;5.88;;;3.70;99.90;;;;;;10216277;28;20027;-69
2023/01/23 11:04:22;;;;;;;7.22;4.35;;;3.80;99.90;;;;;;10196512;28;20036;-65
2023/01/23 11:09:19;;;;;;;11.85;5.80;;;3.80;99.90;;;;;;10210635;28;20080;-68
2023/01/23 11:14:15;;;;;;;14.00;5.40;;;3.80;99.90;;;;;;10182882;28;20641;-64
2023/01/23 11:19:10;;;;;;;14.35;5.68;;;4.00;99.90;;;;;;10187950;28;20108;-65
2023/01/23 11:24:24;;;;;;;9.73;5.50;;;4.00;99.90;;;;;;10189449;28;20036;-69
2023/01/23 11:29:20;;;;;;;11.32;4.65;;;4.10;99.90;;;;;;10173861;28;20397;-72
2023/01/23 11:34:11;;;;;;;;;;;4.20;99.90;;;;;;10190040;28;20037;-65
2023/01/23 11:39:31;;;;;;;8.73;4.85;;;4.30;99.90;;;;;;10189250;28;20365;-66
2023/01/23 11:44:23;;;;;;;13.82;5.47;;;4.30;99.90;;;;;;10171863;28;20362;-65
2023/01/23 11:49:41;;;;;;;15.70;5.90;;;4.30;99.90;;;;;;10184844;28;20032;-67
2023/01/23 11:55:07;;;;;;;9.63;4.53;;;4.40;99.90;;;;;;10183112;28;20028;-65
2023/01/23 12:00:06;;;;;;;13.45;6.00;;;4.20;99.90;;;;;;10186427;28;20110;-65
2023/01/23 12:05:11;;;;;;;13.25;6.75;;;4.20;99.90;;;;;;10176111;28;20021;-65
2023/01/23 12:10:23;;;;;;;9.88;4.80;;;4.40;99.90;;;;;;10166347;28;20107;-69
2023/01/23 12:15:22;;;;;;;11.10;5.18;;;4.30;99.90;;;;;;10170301;28;20024;-66
2023/01/23 12:20:25;;;;;;;10.52;4.57;;;4.40;99.90;;;;;;10177293;28;20028;-68
2023/01/23 12:25:21;;;;;;;9.05;4.78;;;4.50;99.90;;;;;;10168478;28;20048;-67
2023/01/23 12:30:12;;;;;;;10.45;4.85;;;4.60;99.90;;;;;;10168026;28;20135;-66
2023/01/23 12:35:16;;;;;;;12.73;5.22;;;4.40;99.90;;;;;;10178991;28;20951;-65
2023/01/23 12:40:09;;;;;;;10.95;6.32;;;4.30;99.90;;;;;;10183213;28;20046;-67
2023/01/23 12:45:11;;;;;;;9.10;5.07;;;4.30;99.90;;;;;;10185530;28;20055;-66
2023/01/23 12:50:23;;;;;;;11.10;4.72;;;4.40;99.90;;;;;;10182800;27;20039;-67
2023/01/23 12:55:14;;;;;;;11.85;5.15;;;4.60;99.90;;;;;;10177304;28;20026;-64
2023/01/23 13:00:13;;;;;;;10.13;4.38;;;4.60;99.90;;;;;;10184882;28;20028;-65
2023/01/23 13:05:15;;;;;;;7.05;4.28;;;4.70;99.90;;;;;;10197626;28;20043;-68
2023/01/23 13:10:20;;;;;;;11.32;5.55;;;4.80;99.90;;;;;;10194561;28;20111;-72
2023/01/23 13:15:16;;;;;;;13.32;6.10;;;4.80;99.90;;;;;;10187469;28;20036;-67
2023/01/23 13:25:38;;;;;;;8.93;5.03;;;4.80;99.90;;;;;;10177192;28;20111;-65
2023/01/23 13:30:31;;;;;;;12.02;5.63;;;4.80;99.90;;;;;;10178714;28;20444;-64
2023/01/23 13:35:46;;;;;;;10.07;4.38;;;4.80;99.90;;;;;;10199815;28;20023;-66
2023/01/23 13:40:37;;;;;;;9.32;4.65;;;4.70;99.90;;;;;;10190224;28;20381;-65
2023/01/23 13:45:28;;;;;;;9.10;4.75;;;4.60;99.90;;;;;;10188478;28;20131;-65
2023/01/23 13:50:48;;;;;;;9.27;4.90;;;4.70;99.90;;;;;;10185331;28;20533;-64
2023/01/23 14:06:09;;;;;;;6.72;4.20;;;4.50;99.90;;;;;;10203199;28;20520;-72
2023/01/23 14:11:03;;;;;;;8.43;4.07;;;4.40;99.90;;;;;;10205132;28;20028;-79
2023/01/23 14:16:10;;;;;;;8.23;4.47;;;4.40;99.90;;;;;;10194853;28;20392;-67
2023/01/23 14:21:15;;;;;;;8.30;4.40;;;4.30;99.90;;;;;;10185827;28;20043;-65
2023/01/23 14:26:10;;;;;;;7.20;4.93;;;4.20;99.90;;;;;;10192968;28;20111;-64
2023/01/23 14:31:04;;;;;;;8.90;3.83;;;4.10;99.90;;;;;;10180570;28;20263;-65
2023/01/23 14:35:55;;;;;;;8.80;4.88;;;4.20;99.90;;;;;;10209045;28;20031;-69
2023/01/23 14:40:46;;;;;;;10.57;4.22;;;4.30;99.90;;;;;;10200395;28;20028;-67
2023/01/23 14:45:37;;;;;;;8.07;4.10;;;4.30;99.90;;;;;;10196864;28;20137;-67
2023/01/23 14:50:29;;;;;;;8.93;4.07;;;4.30;99.90;;;;;;10193712;28;20104;-74
2023/01/23 14:55:22;;;;;;;6.90;4.38;;;4.30;99.90;;;;;;10184542;28;20027;-70
2023/01/23 15:00:17;;;;;;;10.60;5.20;;;4.20;99.90;;;;;;10213533;28;20027;-74
2023/01/23 15:05:19;;;;;;;7.43;4.25;;;4.20;99.90;;;;;;10202998;28;20035;-68
2023/01/23 15:10:19;;;;;;;12.80;4.85;;;4.10;99.90;;;;;;10207752;28;20020;-70
2023/01/23 15:15:17;;;;;;;12.05;4.60;;;4.20;99.90;;;;;;10190448;28;20089;-77
2023/01/23 15:20:31;;;;;;;12.25;4.78;;;4.10;99.90;;;;;;10192040;28;20032;-75
2023/01/23 15:25:26;;;;;;;7.63;4.00;;;4.00;99.90;;;;;;10189932;28;20040;-70
2023/01/23 15:30:35;;;;;;;10.68;4.75;;;3.90;99.90;;;;;;10190552;28;20099;-66
2023/01/23 15:35:25;;;;;;;8.43;3.95;;;3.80;99.90;;;;;;10211555;28;20486;-76
2023/01/23 15:40:18;;;;;;;8.43;4.70;;;3.80;99.90;;;;;;10219876;28;20024;-70
2023/01/23 15:45:13;;;;;;;8.63;4.15;;;3.80;99.90;;;;;;10196333;28;20796;-66
2023/01/23 15:50:04;;;;;;;7.70;3.70;;;3.70;99.90;;;;;;10181306;28;20039;-76
2023/01/23 15:54:59;;;;;;;7.47;3.63;;;3.80;99.90;;;;;;10195571;28;20016;-78
2023/01/23 15:59:50;;;;;;;8.07;4.07;;;3.70;99.90;;;;;;10210975;28;20023;-74
2023/01/23 16:04:41;;;;;;;10.60;4.78;;;3.70;99.90;;;;;;10197831;28;20282;-78
2023/01/23 16:09:34;;;;;;;7.82;3.85;;;3.60;99.90;;;;;;10208055;28;20028;-71
2023/01/23 16:14:25;;;;;;;10.93;4.78;;;3.60;99.90;;;;;;10189527;28;20066;-75
2023/01/23 16:19:16;;;;;;;7.05;3.67;;;3.50;99.90;;;;;;10196632;28;20539;-73
2023/01/23 16:24:15;;;;;;;7.30;3.85;;;3.40;99.90;;;;;;10187368;28;20020;-68
2023/01/23 16:29:22;;;;;;;6.50;3.47;;;3.40;99.90;;;;;;10172425;28;20120;-71
2023/01/23 16:34:14;;;;;;;8.98;4.28;;;3.30;99.90;;;;;;10187548;28;20027;-70
2023/01/23 16:39:05;;;;;;;6.88;3.35;;;3.30;99.90;;;;;;10208071;28;20105;-72
2023/01/23 16:43:55;;;;;;;7.40;3.10;;;3.30;99.90;;;;;;10192663;28;20101;-77
2023/01/23 16:48:49;;;;;;;6.38;3.70;;;3.30;99.90;;;;;;10190747;28;20039;-65
2023/01/23 16:53:43;;;;;;;9.57;4.32;;;3.30;99.90;;;;;;10184244;28;20020;-66
2023/01/23 16:58:38;;;;;;;8.55;3.83;;;3.30;99.90;;;;;;10183500;28;20327;-68
2023/01/23 17:03:33;;;;;;;7.28;3.05;;;3.40;99.90;;;;;;10204260;28;20374;-70
2023/01/23 17:08:25;;;;;;;5.20;3.28;;;3.50;99.90;;;;;;10200995;28;20119;-72
2023/01/23 17:13:18;;;;;;;8.95;4.20;;;3.60;99.90;;;;;;10197893;28;20024;-70
2023/01/23 17:18:27;;;;;;;7.00;3.33;;;3.60;99.90;;;;;;10195640;28;20028;-70
2023/01/23 17:23:18;;;;;;;9.40;4.60;;;3.70;99.90;;;;;;10181904;28;20028;-68
2023/01/23 17:28:09;;;;;;;5.68;3.72;;;3.80;99.90;;;;;;10183427;28;20036;-71
2023/01/23 17:32:59;;;;;;;8.43;3.75;;;3.80;99.90;;;;;;10189849;28;20020;-70
2023/01/23 17:37:56;;;;;;;7.90;3.72;;;3.90;99.90;;;;;;10205639;28;20130;-71
2023/01/23 17:42:46;;;;;;;7.15;3.97;;;3.80;99.90;;;;;;10183939;28;20028;-64
2023/01/23 17:47:39;;;;;;;5.65;3.45;;;3.80;99.90;;;;;;10185678;28;20067;-65
2023/01/23 17:52:31;;;;;;;6.97;3.78;;;3.90;99.90;;;;;;10176656;28;20631;-68
2023/01/23 17:57:22;;;;;;;7.30;3.53;;;3.80;99.90;;;;;;10168355;28;20028;-72
2023/01/23 18:02:27;;;;;;;12.77;4.80;;;3.90;99.90;;;;;;10206281;28;20020;-64
2023/01/23 18:07:18;;;;;;;9.07;4.07;;;3.90;99.90;;;;;;10201497;28;20433;-67
2023/01/23 18:12:20;;;;;;;6.03;3.60;;;3.80;99.90;;;;;;10183634;28;20454;-70
2023/01/23 18:17:54;;;;;;;7.28;3.97;;;3.80;99.90;;;;;;10176220;28;20528;-70
2023/01/23 18:22:45;;;;;;;6.97;3.60;;;3.70;99.90;;;;;;10142203;28;20044;-70
2023/01/23 18:27:39;;;;;;;7.93;4.43;;;3.70;99.90;;;;;;10181125;28;20036;-64
2023/01/23 18:33:06;;;;;;;4.95;3.42;;;3.70;99.90;;;;;;10177630;28;20016;-69
2023/01/23 18:38:05;;;;;;;38.47;18.45;;;3.70;99.90;;;;;;10188694;28;20043;-69
2023/01/23 18:43:22;;;;;;;14.32;7.40;;;3.80;99.90;;;;;;10182313;28;20205;-68
2023/01/23 18:48:18;;;;;;;10.95;5.05;;;3.90;99.90;;;;;;10175585;28;20447;-73
2023/01/23 18:53:27;;;;;;;9.20;4.32;;;3.90;99.90;;;;;;10189676;28;20432;-71
2023/01/23 18:58:17;;;;;;;6.78;4.30;;;3.80;99.90;;;;;;10183483;28;20317;-69
2023/01/23 19:03:14;;;;;;;7.75;3.45;;;3.90;99.90;;;;;;10198463;28;20356;-68
2023/01/23 19:08:05;;;;;;;6.47;3.35;;;3.80;99.90;;;;;;10213712;28;20062;-69
2023/01/23 19:13:06;;;;;;;9.00;3.90;;;3.90;99.90;;;;;;10180863;28;20024;-69
2023/01/23 19:18:18;;;;;;;6.75;3.63;;;3.90;99.90;;;;;;10182723;28;20119;-69
2023/01/23 19:23:38;;;;;;;10.02;3.83;;;3.90;99.90;;;;;;10188182;28;20160;-70
2023/01/23 19:28:29;;;;;;;45.67;20.92;;;3.90;99.90;;;;;;10188355;28;20047;-73
2023/01/23 19:33:20;;;;;;;21.30;10.40;;;3.90;99.90;;;;;;10183296;28;20020;-74
2023/01/23 19:38:13;;;;;;;12.80;5.82;;;4.00;99.90;;;;;;10182939;28;20574;-71
2023/01/23 19:43:04;;;;;;;15.38;5.30;;;3.90;99.90;;;;;;10176983;28;20422;-68
2023/01/23 19:47:55;;;;;;;7.28;3.72;;;4.00;99.90;;;;;;10175231;28;20059;-66
2023/01/23 19:52:47;;;;;;;8.10;4.15;;;4.00;99.90;;;;;;10178267;28;20032;-68
2023/01/23 19:57:38;;;;;;;5.80;3.47;;;4.00;99.90;;;;;;10180300;28;20024;-72
2023/01/23 20:02:28;;;;;;;7.75;4.15;;;4.00;99.90;;;;;;10187365;28;20093;-74
2023/01/23 20:07:19;;;;;;;8.13;4.10;;;4.00;99.90;;;;;;10178119;28;20050;-66
2023/01/23 20:12:11;;;;;;;11.35;4.40;;;3.90;99.90;;;;;;10179241;28;20462;-75
2023/01/23 20:17:02;;;;;;;12.07;5.07;;;3.80;99.90;;;;;;10177251;28;20145;-68
2023/01/23 20:21:52;;;;;;;9.38;4.75;;;3.80;99.90;;;;;;10178741;28;20025;-70
2023/01/23 20:26:43;;;;;;;9.77;4.55;;;3.70;99.90;;;;;;10178080;28;20131;-66
2023/01/23 20:31:34;;;;;;;5.53;3.53;;;3.80;99.90;;;;;;10175956;28;20033;-66
2023/01/23 20:36:25;;;;;;;9.15;3.75;;;3.70;99.90;;;;;;10177217;28;20562;-66
2023/01/23 20:41:18;;;;;;;11.80;5.88;;;3.80;99.90;;;;;;10176868;28;20032;-63
2023/01/23 20:46:10;;;;;;;8.07;3.92;;;3.70;99.90;;;;;;10176182;28;20054;-66
2023/01/23 20:51:01;;;;;;;8.27;3.85;;;3.70;99.90;;;;;;10175642;28;20421;-66
2023/01/23 20:55:53;;;;;;;8.20;4.00;;;3.80;99.90;;;;;;10175423;28;20023;-68
2023/01/23 21:00:44;;;;;;;7.32;3.15;;;3.70;99.90;;;;;;10176017;28;20012;-68
2023/01/23 21:05:35;;;;;;;7.93;4.07;;;3.70;99.90;;;;;;10176245;28;20494;-66
2023/01/23 21:10:26;;;;;;;8.38;3.97;;;3.70;99.90;;;;;;10174075;28;20031;-65
2023/01/23 21:15:17;;;;;;;7.85;3.95;;;3.60;99.90;;;;;;10174949;28;20465;-64
2023/01/23 21:20:08;;;;;;;4.43;2.47;;;3.50;99.90;;;;;;10173471;28;20117;-66
2023/01/23 21:25:01;;;;;;;9.77;4.32;;;3.50;99.90;;;;;;10174638;28;20549;-64
2023/01/23 21:29:52;;;;;;;10.32;4.22;;;3.50;99.90;;;;;;10174062;28;20040;-66
2023/01/23 21:34:43;;;;;;;9.35;5.53;;;3.40;99.90;;;;;;10174816;28;20497;-67
2023/01/23 21:39:33;;;;;;;7.97;3.83;;;3.40;99.90;;;;;;10175503;28;20024;-68
2023/01/23 21:44:24;;;;;;;8.80;4.47;;;3.40;99.90;;;;;;10178132;28;20528;-67
2023/01/23 21:49:15;;;;;;;6.80;4.32;;;3.40;99.90;;;;;;10180034;28;20064;-67
2023/01/23 21:54:05;;;;;;;9.65;4.78;;;3.30;99.90;;;;;;10177650;28;20012;-65
2023/01/23 21:58:57;;;;;;;8.10;4.40;;;3.30;99.90;;;;;;10175040;28;20024;-67
2023/01/23 22:03:49;;;;;;;46.20;21.13;;;3.30;99.90;;;;;;10174744;28;20073;-68
2023/01/23 22:08:39;;;;;;;20.90;10.38;;;3.70;99.90;;;;;;10174157;28;20036;-64
2023/01/23 22:13:30;;;;;;;15.63;5.78;;;3.60;99.90;;;;;;10174780;28;20030;-64
2023/01/23 22:18:21;;;;;;;11.52;5.85;;;3.40;99.90;;;;;;10173886;28;20035;-65
2023/01/23 22:23:12;;;;;;;8.38;4.07;;;3.40;99.90;;;;;;10176328;28;20400;-64
2023/01/23 22:28:02;;;;;;;8.30;4.85;;;3.50;99.90;;;;;;10180756;28;20051;-69
2023/01/23 22:32:53;;;;;;;8.88;3.97;;;3.50;99.90;;;;;;10178556;28;20040;-66
2023/01/23 22:37:44;;;;;;;10.10;4.75;;;3.40;99.90;;;;;;10181738;28;20028;-66
2023/01/23 22:42:35;;;;;;;8.55;4.22;;;3.40;99.90;;;;;;10183799;28;20031;-66
2023/01/23 22:47:25;;;;;;;9.00;4.25;;;3.50;99.90;;;;;;10181984;28;20522;-67
2023/01/23 22:52:16;;;;;;;7.35;3.90;;;3.40;99.90;;;;;;10182690;28;20024;-66
2023/01/23 22:57:07;;;;;;;10.50;3.97;;;3.40;99.90;;;;;;10181553;28;20024;-64
2023/01/23 23:01:58;;;;;;;12.10;4.68;;;3.50;99.90;;;;;;10180568;28;20031;-65
2023/01/23 23:06:48;;;;;;;8.88;4.47;;;3.50;99.90;;;;;;10181314;28;20053;-70
2023/01/23 23:11:39;;;;;;;9.18;4.10;;;3.50;99.90;;;;;;10181503;28;20020;-67
2023/01/23 23:16:31;;;;;;;7.40;4.15;;;3.60;99.90;;;;;;10180682;28;20028;-69
2023/01/23 23:21:24;;;;;;;10.20;4.80;;;3.50;99.90;;;;;;10181544;28;20497;-66
2023/01/23 23:26:15;;;;;;;11.45;5.65;;;3.40;99.90;;;;;;10180442;28;20076;-66
2023/01/23 23:31:07;;;;;;;10.48;5.13;;;3.50;99.90;;;;;;10186296;28;20043;-68
2023/01/23 23:35:58;;;;;;;10.15;4.38;;;3.40;99.90;;;;;;10184853;28;20055;-66
2023/01/23 23:41:01;;;;;;;10.48;4.82;;;3.40;99.90;;;;;;10182094;28;20472;-66
2023/01/23 23:46:00;;;;;;;7.65;5.07;;;3.50;99.90;;;;;;10180824;28;20052;-66
2023/01/23 23:50:52;;;;;;;9.18;4.72;;;3.50;99.90;;;;;;10179758;28;20088;-68
2023/01/23 23:55:43;;;;;;;7.78;4.13;;;3.50;99.90;;;;;;10178027;28;20054;-64
